Time;durP1;ratioP1;P1;durP2;ratioP2;P2;SDS_P1;SDS_P2;PMS_P1;PMS_P2;Temp;Humidity;BMP_temperature;BMP_pressure;BME280_temperature;BME280_humidity;BME280_pressure;Samples;Min_cycle;Max_cycle;Signal;HPM_P1;HPM_P2
2022/12/07 00:00:52;;;;;;;18.30;8.67;;;;;;;-145.69;100.00;52757.31;5093126;28;20205;-83
2022/12/07 00:03:18;;;;;;;23.67;9.77;;;;;;;-145.69;100.00;52723.63;5092681;28;20280;-83
2022/12/07 00:05:46;;;;;;;20.43;9.43;;;;;;;-145.69;100.00;52731.56;5093273;28;20652;-84
2022/12/07 00:08:13;;;;;;;22.87;8.83;;;;;;;-145.69;100.00;52743.44;5093530;28;20201;-83
2022/12/07 00:10:39;;;;;;;21.97;9.77;;;;;;;-145.69;100.00;52741.47;5093287;28;20208;-83
2022/12/07 00:13:06;;;;;;;18.07;9.37;;;;;;;-145.69;100.00;52757.31;5099140;28;20225;-83
2022/12/07 00:15:34;;;;;;;21.10;9.43;;;;;;;-145.69;100.00;52749.38;5098032;28;20202;-82
2022/12/07 00:18:01;;;;;;;24.00;9.87;;;;;;;-145.69;100.00;52757.31;5097129;28;20198;-82
2022/12/07 00:20:27;;;;;;;25.07;10.23;;;;;;;-145.69;100.00;52729.56;5094203;28;20198;-82
2022/12/07 00:22:55;;;;;;;20.63;9.07;;;;;;;-145.69;100.00;52737.50;5094016;28;20240;-82
2022/12/07 00:25:22;;;;;;;23.33;9.63;;;;;;;-145.69;100.00;52755.31;5093271;28;20194;-82
2022/12/07 00:27:48;;;;;;;22.40;10.10;;;;;;;-145.69;100.00;52755.31;5093547;28;20718;-83
2022/12/07 00:30:15;;;;;;;24.47;9.90;;;;;;;-145.69;100.00;52735.50;5093609;28;20565;-82
2022/12/07 00:32:42;;;;;;;22.70;8.97;;;;;;;-145.69;100.00;52745.41;5094390;28;20201;-82
2022/12/07 00:35:09;;;;;;;19.70;8.90;;;;;;;-145.69;100.00;52751.34;5094360;28;20257;-82
2022/12/07 00:37:35;;;;;;;24.67;9.30;;;;;;;-145.69;100.00;52781.06;5093944;28;20198;-82
2022/12/07 00:40:04;;;;;;;24.37;10.47;;;;;;;-145.69;100.00;52745.41;5094242;28;20296;-82
2022/12/07 00:42:30;;;;;;;22.60;9.33;;;;;;;-145.69;100.00;52721.66;5094977;28;20549;-83
2022/12/07 00:44:57;;;;;;;23.07;9.40;;;;;;;-145.69;100.00;52737.50;5097554;28;20198;-83
2022/12/07 00:47:23;;;;;;;22.57;9.23;;;;;;;-145.69;100.00;52757.31;5097684;28;20202;-83
2022/12/07 00:49:50;;;;;;;22.77;9.80;;;;;;;-145.69;100.00;52755.31;5099653;28;20327;-82
2022/12/07 00:52:16;;;;;;;26.13;10.70;;;;;;;-145.69;100.00;52729.56;5097471;28;20754;-82
2022/12/07 00:54:43;;;;;;;27.17;11.98;;;;;;;-145.69;100.00;52771.16;5099111;28;20452;-82
2022/12/07 00:57:11;;;;;;;26.13;9.70;;;;;;;-145.69;100.00;52759.28;5099324;28;20198;-82
2022/12/07 00:59:37;;;;;;;27.13;11.13;;;;;;;-145.69;100.00;52737.50;5099897;28;20622;-83
2022/12/07 01:02:04;;;;;;;28.13;11.17;;;;;;;-145.69;100.00;52749.38;5099447;28;20194;-82
2022/12/07 01:04:30;;;;;;;23.73;10.13;;;;;;;-145.69;100.00;52767.19;5100080;28;20202;-82
2022/12/07 01:06:57;;;;;;;26.40;12.65;;;;;;;-145.69;100.00;52757.31;5098890;28;20437;-82
2022/12/07 01:09:23;;;;;;;24.00;10.77;;;;;;;-145.69;100.00;52767.19;5098807;28;20198;-82
2022/12/07 01:11:50;;;;;;;21.37;9.27;;;;;;;-145.69;100.00;52741.47;5099540;28;20263;-83
2022/12/07 01:14:18;;;;;;;21.43;8.43;;;;;;;-145.69;100.00;52757.31;5099499;28;20230;-82
2022/12/07 01:16:44;;;;;;;23.77;8.63;;;;;;;-145.69;100.00;52773.16;5099939;28;20649;-83
2022/12/07 01:19:11;;;;;;;25.97;10.37;;;;;;;-145.69;100.00;52753.34;5099759;28;20198;-82
2022/12/07 01:21:39;;;;;;;25.43;11.07;;;;;;;-145.69;100.00;52781.06;5099451;28;20202;-83
2022/12/07 01:24:08;;;;;;;22.77;9.93;;;;;;;-145.69;100.00;52769.19;5098520;28;20206;-83
2022/12/07 01:26:35;;;;;;;21.10;8.47;;;;;;;-145.69;100.00;52735.50;5085039;28;20667;-83
2022/12/07 01:29:01;;;;;;;22.33;10.13;;;;;;;-145.69;100.00;52741.47;5099324;28;20284;-83
2022/12/07 01:31:29;;;;;;;22.53;9.30;;;;;;;-145.69;100.00;52737.50;5098041;28;20190;-82
2022/12/07 01:33:58;;;;;;;20.70;9.43;;;;;;;-145.69;100.00;52751.34;5098105;28;20230;-83
2022/12/07 01:36:27;;;;;;;23.87;10.20;;;;;;;-145.69;100.00;52713.72;5098233;28;20237;-83
2022/12/07 01:38:56;;;;;;;21.13;8.80;;;;;;;-145.69;100.00;52733.53;5097158;28;20205;-83
2022/12/07 01:41:24;;;;;;;27.30;9.87;;;;;;;-145.69;100.00;52765.22;5096213;28;20202;-83
2022/12/07 01:44:10;;;;;;;20.27;8.97;;;;;;;-145.69;100.00;52745.41;5095691;28;20198;-83
2022/12/07 01:46:39;;;;;;;21.97;10.27;;;;;;;-145.69;100.00;52769.19;5095310;28;20264;-84
2022/12/07 01:49:09;;;;;;;21.03;8.77;;;;;;;-145.69;100.00;52759.28;5096148;28;20227;-83
2022/12/07 01:51:39;;;;;;;19.37;8.63;;;;;;;-145.69;100.00;52719.66;5096725;28;20198;-83
2022/12/07 01:54:05;;;;;;;22.83;9.20;;;;;;;-145.69;100.00;52719.66;5097226;28;20741;-82
2022/12/07 01:56:33;;;;;;;23.03;9.57;;;;;;;-145.69;100.00;52755.31;5095377;28;20194;-83
2022/12/07 01:59:01;;;;;;;18.87;8.80;;;;;;;-145.69;100.00;52757.31;5096208;28;20197;-82
2022/12/07 02:01:28;;;;;;;19.70;8.97;;;;;;;-145.69;100.00;52733.53;5096051;28;20225;-83
2022/12/07 02:03:57;;;;;;;24.70;9.90;;;;;;;-145.69;100.00;52737.50;5095667;28;20198;-83
2022/12/07 02:06:26;;;;;;;26.33;9.47;;;;;;;-145.69;100.00;52761.25;5096181;28;20640;-84
2022/12/07 02:08:54;;;;;;;31.67;11.13;;;;;;;-145.69;100.00;52761.25;5096197;28;20202;-83
2022/12/07 02:11:21;;;;;;;29.27;10.93;;;;;;;-145.69;100.00;52745.41;5095955;28;20200;-82
2022/12/07 02:13:49;;;;;;;25.87;10.60;;;;;;;-145.69;100.00;52707.78;5099569;28;20226;-83
2022/12/07 02:16:26;;;;;;;27.53;10.97;;;;;;;-145.69;100.00;52759.28;5099697;28;20198;-82
2022/12/07 02:19:25;;;;;;;24.53;9.17;;;;;;;-145.69;100.00;52761.25;5099240;28;20219;-82
2022/12/07 02:21:58;;;;;;;20.73;8.77;;;;;;;-145.69;100.00;52775.13;5098635;28;20564;-82
2022/12/07 02:24:48;;;;;;;21.80;8.60;;;;;;;-145.69;100.00;52737.50;5097685;28;20202;-83
2022/12/07 02:27:35;;;;;;;17.87;8.57;;;;;;;-145.69;100.00;52769.19;5097404;28;20683;-83
2022/12/07 02:30:05;;;;;;;18.80;8.97;;;;;;;-145.69;100.00;52727.59;5096253;28;20599;-83
2022/12/07 02:32:43;;;;;;;21.53;9.03;;;;;;;-145.69;100.00;52741.47;5095753;28;20696;-83
2022/12/07 02:35:16;;;;;;;23.90;9.17;;;;;;;-145.69;100.00;52733.53;5095845;28;20253;-83
2022/12/07 02:37:52;;;;;;;23.50;10.23;;;;;;;-145.69;100.00;52753.34;5095785;28;20599;-83
2022/12/07 02:40:24;;;;;;;28.30;10.13;;;;;;;-145.69;100.00;52769.19;5097242;28;20202;-83
2022/12/07 02:42:56;;;;;;;26.77;10.50;;;;;;;-145.69;100.00;52757.31;5099919;28;20198;-83
2022/12/07 02:45:27;;;;;;;24.50;9.20;;;;;;;-145.69;100.00;52747.41;5098905;28;20206;-83
2022/12/07 02:47:59;;;;;;;27.33;11.53;;;;;;;-145.69;100.00;52711.75;5099785;28;20194;-82
2022/12/07 02:50:26;;;;;;;26.60;11.37;;;;;;;-145.69;100.00;52727.59;5100617;28;20205;-83
2022/12/07 02:52:53;;;;;;;28.50;11.73;;;;;;;-145.69;100.00;52753.34;5100090;28;20198;-83
2022/12/07 02:55:34;;;;;;;27.67;11.83;;;;;;;-145.69;100.00;52777.09;5096783;28;20229;-83
2022/12/07 02:58:14;;;;;;;26.50;11.20;;;;;;;-145.69;100.00;52777.09;5095996;28;20201;-83
2022/12/07 03:00:52;;;;;;;27.50;11.50;;;;;;;-145.69;100.00;52729.56;5094685;28;20198;-84
2022/12/07 03:03:19;;;;;;;25.50;10.83;;;;;;;-145.69;100.00;52733.53;5095804;28;20687;-83
2022/12/07 03:06:06;;;;;;;22.97;10.47;;;;;;;-145.69;100.00;52747.41;5096217;28;20648;-83
2022/12/07 03:08:44;;;;;;;25.63;10.37;;;;;;;-145.69;100.00;52771.16;5076285;28;20198;-82
2022/12/07 03:11:14;;;;;;;29.90;11.17;;;;;;;-145.69;100.00;52751.34;5075020;28;20210;-84
2022/12/07 03:13:47;;;;;;;28.40;11.30;;;;;;;-145.69;100.00;52761.25;5080746;28;20251;-82
2022/12/07 03:16:18;;;;;;;26.27;11.37;;;;;;;-145.69;100.00;52721.66;5074599;28;20301;-84
2022/12/07 03:18:50;;;;;;;28.80;10.83;;;;;;;-145.69;100.00;52747.41;5075743;28;20569;-83
2022/12/07 03:21:20;;;;;;;23.07;9.37;;;;;;;-145.69;100.00;52771.16;5075342;28;20209;-83
2022/12/07 03:23:52;;;;;;;26.03;10.87;;;;;;;-145.69;100.00;52751.34;5074384;28;20210;-83
2022/12/07 03:26:22;;;;;;;28.90;11.00;;;;;;;-145.69;100.00;52745.41;5074707;28;20293;-83
2022/12/07 03:28:53;;;;;;;29.63;10.53;;;;;;;-145.69;100.00;52737.50;5081471;28;20652;-83
2022/12/07 03:31:24;;;;;;;31.00;10.77;;;;;;;-145.69;100.00;52701.84;5096850;28;20202;-83
2022/12/07 03:33:59;;;;;;;29.57;11.07;;;;;;;-145.69;100.00;52753.34;5096055;28;20279;-84
2022/12/07 03:36:31;;;;;;;30.63;11.43;;;;;;;-145.69;100.00;52773.16;5096122;28;20584;-83
2022/12/07 03:39:04;;;;;;;26.20;10.43;;;;;;;-145.69;100.00;52717.69;5095286;28;20202;-84
2022/12/07 03:41:36;;;;;;;26.57;9.83;;;;;;;-145.69;100.00;52731.56;5093944;28;20198;-83
2022/12/07 03:44:02;;;;;;;27.67;10.90;;;;;;;-145.69;100.00;52765.22;5095115;28;20203;-83
2022/12/07 03:46:38;;;;;;;26.30;10.27;;;;;;;-145.69;100.00;52755.31;5095433;28;20225;-83
2022/12/07 03:49:12;;;;;;;28.60;11.73;;;;;;;-145.69;100.00;52729.56;5096742;28;20206;-82
2022/12/07 03:51:44;;;;;;;30.60;11.23;;;;;;;-145.69;100.00;52741.47;5098597;28;20265;-82
2022/12/07 03:54:15;;;;;;;28.50;10.00;;;;;;;-145.69;100.00;52757.31;5099189;28;20553;-82
2022/12/07 03:56:43;;;;;;;22.17;9.53;;;;;;;-145.69;100.00;52741.47;5098888;28;20198;-81
2022/12/07 03:59:11;;;;;;;19.53;8.23;;;;;;;-145.69;100.00;52693.94;5097620;28;20200;-82
2022/12/07 04:01:39;;;;;;;18.00;7.10;;;;;;;-145.69;100.00;52735.50;5098032;28;20657;-83
2022/12/07 04:04:06;;;;;;;24.60;9.77;;;;;;;-145.69;100.00;52785.03;5097919;28;20211;-82
2022/12/07 04:06:32;;;;;;;23.00;9.70;;;;;;;-145.69;100.00;52745.41;5097855;28;20217;-82
2022/12/07 04:08:59;;;;;;;21.93;10.10;;;;;;;-145.69;100.00;52757.31;5097021;28;20209;-82
2022/12/07 04:11:25;;;;;;;22.77;9.13;;;;;;;-145.69;100.00;52761.25;5097127;28;20198;-82
2022/12/07 04:16:36;;;;;;;22.57;9.70;;;;;;;-145.69;100.00;52763.25;5098540;28;20219;-83
2022/12/07 04:19:03;;;;;;;22.10;9.43;;;;;;;-145.69;100.00;52725.63;5103850;28;20296;-82
2022/12/07 04:21:30;;;;;;;23.50;8.90;;;;;;;-145.69;100.00;52741.47;5106364;28;20645;-83
2022/12/07 04:23:56;;;;;;;10.70;5.20;;;;;;;-145.69;100.00;52796.91;5106135;28;20198;-82
2022/12/07 04:26:23;;;;;;;8.87;4.33;;;;;;;-145.69;100.00;52743.44;5102793;28;20209;-82
2022/12/07 04:28:49;;;;;;;8.70;4.63;;;;;;;-145.69;100.00;52741.47;5101656;28;20197;-83
2022/12/07 04:31:16;;;;;;;6.77;3.80;;;;;;;-145.69;100.00;52725.63;5100784;28;20190;-83
2022/12/07 04:33:42;;;;;;;5.90;3.30;;;;;;;-145.69;100.00;52781.06;5097324;28;20649;-82
2022/12/07 04:36:10;;;;;;;10.37;5.17;;;;;;;-145.69;100.00;52753.34;5097496;28;20232;-83
2022/12/07 04:38:37;;;;;;;13.27;5.70;;;;;;;-145.69;100.00;52761.25;5097649;28;20190;-83
2022/12/07 04:41:06;;;;;;;12.90;6.10;;;;;;;-145.69;100.00;52763.25;5096899;28;20202;-82
2022/12/07 04:43:33;;;;;;;11.83;6.30;;;;;;;-145.69;100.00;52777.09;5097580;28;20258;-83
2022/12/07 04:45:59;;;;;;;12.37;5.63;;;;;;;-145.69;100.00;52753.34;5097883;28;20656;-83
2022/12/07 04:48:26;;;;;;;13.30;6.73;;;;;;;-145.69;100.00;52781.06;5097560;28;20549;-82
2022/12/07 04:50:52;;;;;;;25.63;8.83;;;;;;;-145.69;100.00;52812.75;5097514;28;20194;-83
2022/12/07 04:53:20;;;;;;;19.43;8.53;;;;;;;-145.69;100.00;52783.06;5097544;28;20209;-83
2022/12/07 04:55:47;;;;;;;37.77;9.60;;;;;;;-145.69;100.00;52731.56;5097580;28;20234;-83
2022/12/07 04:58:14;;;;;;;33.73;10.90;;;;;;;-145.69;100.00;52741.47;5097107;28;20194;-83
2022/12/07 05:00:41;;;;;;;27.20;9.93;;;;;;;-145.69;100.00;52769.19;5097648;28;20534;-83
2022/12/07 05:03:07;;;;;;;58.97;12.13;;;;;;;-145.69;100.00;52755.31;5097380;28;20201;-83
2022/12/07 05:05:34;;;;;;;31.17;9.90;;;;;;;-145.69;100.00;52749.38;5097507;28;20202;-82
2022/12/07 05:08:00;;;;;;;25.83;11.17;;;;;;;-145.69;100.00;52751.34;5096958;28;20198;-82
2022/12/07 05:10:28;;;;;;;23.40;10.13;;;;;;;-145.69;100.00;52761.25;5097022;28;20229;-82
2022/12/07 05:12:55;;;;;;;27.73;10.20;;;;;;;-145.69;100.00;52757.31;5097335;28;20204;-83
2022/12/07 05:15:21;;;;;;;24.83;10.77;;;;;;;-145.69;100.00;52767.19;5097554;28;20886;-84
2022/12/07 05:17:48;;;;;;;26.53;10.13;;;;;;;-145.69;100.00;52755.31;5099216;28;20537;-83
2022/12/07 05:20:14;;;;;;;30.43;11.47;;;;;;;-145.69;100.00;52777.09;5098334;28;20194;-83
2022/12/07 05:22:41;;;;;;;28.13;10.80;;;;;;;-145.69;100.00;52745.41;5098491;28;20663;-83
2022/12/07 05:25:08;;;;;;;30.40;11.97;;;;;;;-145.69;100.00;52757.31;5099239;28;20201;-83
2022/12/07 05:27:36;;;;;;;29.97;11.13;;;;;;;-145.69;100.00;52725.63;5101670;28;20206;-83
2022/12/07 05:30:03;;;;;;;27.30;11.00;;;;;;;-145.69;100.00;52717.69;5101476;28;20202;-82
2022/12/07 05:32:29;;;;;;;30.17;12.00;;;;;;;-145.69;100.00;52777.09;5101211;28;20203;-83
2022/12/07 05:34:56;;;;;;;26.37;12.03;;;;;;;-145.69;100.00;52771.16;5100405;28;20238;-83
2022/12/07 05:37:22;;;;;;;28.37;10.93;;;;;;;-145.69;100.00;52753.34;5101362;28;20202;-83
2022/12/07 05:39:50;;;;;;;26.40;11.10;;;;;;;-145.69;100.00;52753.34;5101030;28;20190;-84
2022/12/07 05:42:17;;;;;;;29.03;11.23;;;;;;;-145.69;100.00;52759.28;5099481;28;20563;-83
2022/12/07 05:44:46;;;;;;;29.10;12.17;;;;;;;-145.69;100.00;52763.25;5099701;28;20233;-82
2022/12/07 05:47:13;;;;;;;23.07;11.00;;;;;;;-145.69;100.00;52790.97;5099736;28;20195;-84
2022/12/07 05:49:40;;;;;;;25.27;10.80;;;;;;;-145.69;100.00;52733.53;5100272;28;20222;-83
2022/12/07 05:52:07;;;;;;;23.10;11.07;;;;;;;-145.69;100.00;52755.31;5099203;28;20664;-82
2022/12/07 05:54:34;;;;;;;27.43;11.70;;;;;;;-145.69;100.00;52757.31;5100063;28;20217;-83
2022/12/07 05:57:01;;;;;;;21.90;9.43;;;;;;;-145.69;100.00;52783.06;5099657;28;20209;-82
2022/12/07 05:59:27;;;;;;;26.97;10.80;;;;;;;-145.69;100.00;52749.38;5097665;28;20202;-83
2022/12/07 06:01:57;;;;;;;28.60;10.43;;;;;;;-145.69;100.00;52785.03;5095660;28;20198;-83
2022/12/07 06:04:24;;;;;;;22.47;9.67;;;;;;;-145.69;100.00;52773.16;5095797;28;20198;-83
2022/12/07 06:06:52;;;;;;;24.13;10.37;;;;;;;-145.69;100.00;52771.16;5095665;28;20198;-83
2022/12/07 06:09:19;;;;;;;20.80;9.30;;;;;;;-145.69;100.00;52765.22;5095553;28;20201;-84
2022/12/07 06:14:30;;;;;;;19.87;9.10;;;;;;;-145.69;100.00;52771.16;5095846;28;20592;-83
2022/12/07 06:16:58;;;;;;;23.27;9.30;;;;;;;-145.69;100.00;52806.81;5095915;28;20205;-84
2022/12/07 06:19:25;;;;;;;19.53;8.83;;;;;;;-145.69;100.00;52785.03;5095642;28;20198;-84
2022/12/07 06:21:52;;;;;;;25.80;9.47;;;;;;;-145.69;100.00;52785.03;5096365;28;20198;-82
2022/12/07 06:24:18;;;;;;;21.30;8.77;;;;;;;-145.69;100.00;52765.22;5096146;28;20209;-83
2022/12/07 06:26:46;;;;;;;21.27;8.57;;;;;;;-145.69;100.00;52790.97;5095752;28;20653;-83
2022/12/07 06:29:13;;;;;;;21.37;9.00;;;;;;;-145.69;100.00;52765.22;5094893;28;20194;-82
2022/12/07 06:31:40;;;;;;;22.03;9.33;;;;;;;-145.69;100.00;52729.56;5094776;28;20201;-83
2022/12/07 06:34:11;;;;;;;21.97;9.27;;;;;;;-145.69;100.00;52759.28;5094957;28;20208;-80
2022/12/07 06:36:38;;;;;;;19.30;8.67;;;;;;;-145.69;100.00;52757.31;5094945;28;20728;-82
2022/12/07 06:39:06;;;;;;;35.07;11.40;;;;;;;-145.69;100.00;52761.25;5094665;28;20198;-82
2022/12/07 06:41:32;;;;;;;26.42;12.15;;;;;;;-145.69;100.00;52759.28;5093443;28;20466;-83
2022/12/07 06:43:59;;;;;;;19.20;8.30;;;;;;;-145.69;100.00;52771.16;5094711;28;20205;-82
2022/12/07 06:46:26;;;;;;;22.70;8.27;;;;;;;-145.69;100.00;52785.03;5094464;28;20683;-83
2022/12/07 06:48:53;;;;;;;19.37;8.43;;;;;;;-145.69;100.00;52719.66;5094686;28;20198;-82
2022/12/07 06:51:21;;;;;;;19.30;8.43;;;;;;;-145.69;100.00;52759.28;5094307;28;20206;-82
2022/12/07 06:53:47;;;;;;;12.53;6.00;;;;;;;-145.69;100.00;52753.34;5094548;28;20689;-83
2022/12/07 06:56:14;;;;;;;14.43;6.17;;;;;;;-145.69;100.00;52794.94;5094143;28;20761;-82
2022/12/07 06:58:41;;;;;;;9.97;4.60;;;;;;;-145.69;100.00;52800.88;5094633;28;20198;-82
2022/12/07 07:01:11;;;;;;;11.17;5.20;;;;;;;-145.69;100.00;52757.31;5094940;28;20205;-82
2022/12/07 07:03:37;;;;;;;13.77;6.37;;;;;;;-145.69;100.00;52765.22;5092620;28;20205;-83
2022/12/07 07:06:04;;;;;;;11.93;5.20;;;;;;;-145.69;100.00;52785.03;5094054;28;20597;-82
2022/12/07 07:08:32;;;;;;;12.00;5.53;;;;;;;-145.69;100.00;52763.25;5094229;28;20297;-82
2022/12/07 07:10:59;;;;;;;11.60;4.80;;;;;;;-145.69;100.00;52773.16;5094230;28;20546;-82
2022/12/07 07:13:25;;;;;;;12.07;5.60;;;;;;;-145.69;100.00;52802.84;5094253;28;20199;-81
2022/12/07 07:15:52;;;;;;;11.80;5.00;;;;;;;-145.69;100.00;52773.16;5094128;28;20230;-81
2022/12/07 07:18:18;;;;;;;12.80;5.57;;;;;;;-145.69;100.00;52785.03;5094452;28;20193;-82
2022/12/07 07:20:45;;;;;;;16.37;5.63;;;;;;;-145.69;100.00;52789.00;5094966;28;20205;-81
2022/12/07 07:23:11;;;;;;;18.50;5.30;;;;;;;-145.69;100.00;52810.78;5096127;28;20202;-82
2022/12/07 07:25:39;;;;;;;13.63;5.80;;;;;;;-145.69;100.00;52783.06;5095348;28;20783;-81
2022/12/07 07:28:06;;;;;;;17.00;5.53;;;;;;;-145.69;100.00;52771.16;5094953;28;20330;-82
2022/12/07 07:30:33;;;;;;;16.45;6.80;;;;;;;-145.69;100.00;52757.31;5092872;28;20490;-82
2022/12/07 07:33:00;;;;;;;14.40;5.20;;;;;;;-145.69;100.00;52796.91;5093373;28;20198;-82
2022/12/07 07:35:27;;;;;;;12.73;5.17;;;;;;;-145.69;100.00;52796.91;5097241;28;20237;-82
2022/12/07 07:37:55;;;;;;;12.23;5.30;;;;;;;-145.69;100.00;52796.91;5096954;28;20195;-82
2022/12/07 07:40:22;;;;;;;13.43;5.43;;;;;;;-145.69;100.00;52765.22;5095561;28;20200;-83
2022/12/07 07:42:53;;;;;;;17.13;5.80;;;;;;;-145.69;100.00;52775.13;5101424;28;20201;-81
2022/12/07 07:45:21;;;;;;;20.00;6.53;;;;;;;-145.69;100.00;52751.34;5101886;28;20217;-82
2022/12/07 07:47:47;;;;;;;15.37;6.40;;;;;;;-145.69;100.00;52741.47;5101381;28;20251;-82
2022/12/07 07:50:15;;;;;;;17.37;6.97;;;;;;;-145.69;100.00;52763.25;5101572;28;20656;-81
2022/12/07 07:52:41;;;;;;;17.43;7.37;;;;;;;-145.69;100.00;52787.00;5101525;28;20229;-83
2022/12/07 07:55:09;;;;;;;19.00;6.73;;;;;;;-145.69;100.00;52767.19;5101220;28;20651;-82
2022/12/07 07:57:36;;;;;;;19.70;6.43;;;;;;;-145.69;100.00;52761.25;5101608;28;20202;-82
2022/12/07 08:00:06;;;;;;;20.33;7.40;;;;;;;-145.69;100.00;52757.31;5100629;28;20683;-81
2022/12/07 08:02:32;;;;;;;21.67;8.03;;;;;;;-145.69;100.00;52781.06;5101126;28;20190;-82
2022/12/07 08:04:59;;;;;;;15.07;6.87;;;;;;;-145.69;100.00;52773.16;5098184;28;20198;-82
2022/12/07 08:07:25;;;;;;;22.80;9.95;;;;;;;-145.69;100.00;52765.22;5096791;28;20436;-85
2022/12/07 08:09:52;;;;;;;20.97;7.60;;;;;;;-145.69;100.00;52745.41;5094521;28;20213;-82
2022/12/07 08:12:18;;;;;;;15.50;7.50;;;;;;;-145.69;100.00;52773.16;5098646;28;20284;-81
2022/12/07 08:14:45;;;;;;;19.10;8.10;;;;;;;-145.69;100.00;52765.22;5093294;28;20194;-81
2022/12/07 08:17:13;;;;;;;16.03;7.40;;;;;;;-145.69;100.00;52773.16;5094016;28;20206;-82
2022/12/07 08:19:40;;;;;;;20.53;8.33;;;;;;;-145.69;100.00;52745.41;5093980;28;20596;-82
2022/12/07 08:22:06;;;;;;;16.87;7.63;;;;;;;-145.69;100.00;52757.31;5093755;28;20217;-82
2022/12/07 08:24:34;;;;;;;17.23;7.80;;;;;;;-145.69;100.00;52757.31;5093927;28;20285;-82
2022/12/07 08:27:01;;;;;;;17.50;7.53;;;;;;;-145.69;100.00;52753.34;5092787;28;20194;-81
2022/12/07 08:29:27;;;;;;;18.13;7.20;;;;;;;-145.69;100.00;52727.59;5093411;28;20213;-81
2022/12/07 08:31:54;;;;;;;14.57;6.07;;;;;;;-145.69;100.00;52755.31;5093440;28;20560;-82
2022/12/07 08:34:22;;;;;;;12.03;6.07;;;;;;;-145.69;100.00;52759.28;5092934;28;20202;-81
2022/12/07 08:36:48;;;;;;;14.87;7.77;;;;;;;-145.69;100.00;52729.56;5094523;28;20283;-83
2022/12/07 08:39:17;;;;;;;14.17;7.03;;;;;;;-145.69;100.00;52789.00;5093486;28;20288;-82
2022/12/07 08:41:46;;;;;;;13.97;6.80;;;;;;;-145.69;100.00;52745.41;5093466;28;20198;-82
2022/12/07 08:44:14;;;;;;;14.80;7.40;;;;;;;-145.69;100.00;52775.13;5093575;28;20726;-81
2022/12/07 08:46:45;;;;;;;13.23;6.80;;;;;;;-145.69;100.00;52765.22;5092235;28;20290;-82
2022/12/07 08:49:14;;;;;;;13.57;6.80;;;;;;;-145.69;100.00;52741.47;5093275;28;20190;-82
2022/12/07 08:51:45;;;;;;;13.10;6.73;;;;;;;-145.69;100.00;52773.16;5092601;28;20729;-81
2022/12/07 08:54:18;;;;;;;15.97;7.40;;;;;;;-145.69;100.00;52763.25;5093348;28;20198;-82
2022/12/07 08:56:46;;;;;;;15.20;7.10;;;;;;;-145.69;100.00;52771.16;5094519;28;20269;-84
2022/12/07 08:59:15;;;;;;;12.97;6.40;;;;;;;-145.69;100.00;52757.31;5094056;28;20801;-84
2022/12/07 09:01:42;;;;;;;14.87;7.07;;;;;;;-145.69;100.00;52747.41;5094449;28;20205;-84
2022/12/07 09:04:09;;;;;;;15.17;6.93;;;;;;;-145.69;100.00;52753.34;5094534;28;20560;-83
2022/12/07 09:06:36;;;;;;;14.90;7.33;;;;;;;-145.69;100.00;52745.41;5097158;28;20227;-83
2022/12/07 09:09:05;;;;;;;15.40;6.87;;;;;;;-145.69;100.00;52765.22;5095436;28;20244;-83
2022/12/07 09:11:33;;;;;;;10.83;6.07;;;;;;;-145.69;100.00;52747.41;5093151;28;20595;-82
2022/12/07 09:14:01;;;;;;;12.60;6.10;;;;;;;-145.69;100.00;52747.41;5096707;28;20232;-82
2022/12/07 09:16:28;;;;;;;15.80;8.07;;;;;;;-145.69;100.00;52767.19;5096542;28;20221;-82
2022/12/07 09:18:55;;;;;;;10.60;5.90;;;;;;;-145.69;100.00;52733.53;5096907;28;20202;-83
2022/12/07 09:21:21;;;;;;;12.27;5.80;;;;;;;-145.69;100.00;52781.06;5095956;28;20284;-80
2022/12/07 09:23:48;;;;;;;10.63;5.70;;;;;;;-145.69;100.00;52751.34;5095859;28;20234;-81
2022/12/07 09:26:16;;;;;;;9.60;4.87;;;;;;;-145.69;100.00;52729.56;5096527;28;20568;-81
2022/12/07 09:28:42;;;;;;;11.30;5.63;;;;;;;-145.69;100.00;52729.56;5096685;28;20676;-81
2022/12/07 09:31:09;;;;;;;12.00;5.93;;;;;;;-145.69;100.00;52729.56;5097282;28;20206;-81
2022/12/07 09:33:36;;;;;;;12.63;5.57;;;;;;;-145.69;100.00;52713.72;5097982;28;20198;-81
2022/12/07 09:36:04;;;;;;;8.47;4.70;;;;;;;-145.69;100.00;52715.72;5097520;28;20573;-80
2022/12/07 09:38:32;;;;;;;14.33;5.63;;;;;;;-145.69;100.00;52733.53;5097976;28;20204;-80
2022/12/07 09:41:04;;;;;;;12.03;5.83;;;;;;;-145.69;100.00;52745.41;5096405;28;20199;-80
2022/12/07 09:43:37;;;;;;;12.57;6.00;;;;;;;-145.69;100.00;52729.56;5095736;28;20191;-80
2022/12/07 09:46:04;;;;;;;14.93;6.83;;;;;;;-145.69;100.00;52731.56;5096281;28;20294;-81
2022/12/07 09:48:32;;;;;;;10.43;5.57;;;;;;;-145.69;100.00;52721.66;5095231;28;20243;-81
2022/12/07 09:51:01;;;;;;;11.23;6.30;;;;;;;-145.69;100.00;52727.59;5094757;28;20437;-81
2022/12/07 09:53:30;;;;;;;10.70;4.73;;;;;;;-145.69;100.00;52753.34;5095907;28;20203;-81
2022/12/07 09:55:57;;;;;;;9.20;5.40;;;;;;;-145.69;100.00;52729.56;5095981;28;20233;-81
2022/12/07 09:58:27;;;;;;;11.87;5.27;;;;;;;-145.69;100.00;52781.06;5095904;28;20202;-80
2022/12/07 10:00:57;;;;;;;10.60;5.60;;;;;;;-145.69;100.00;52761.25;5097304;28;20209;-81
2022/12/07 10:03:24;;;;;;;12.33;5.70;;;;;;;-145.69;100.00;52715.72;5098030;28;20194;-80
2022/12/07 10:05:52;;;;;;;10.70;6.00;;;;;;;-145.69;100.00;52729.56;5097609;28;20202;-80
2022/12/07 10:08:21;;;;;;;11.27;5.63;;;;;;;-145.69;100.00;52745.41;5098943;28;20198;-78
2022/12/07 10:10:52;;;;;;;6.90;3.97;;;;;;;-145.69;100.00;52733.53;5101100;28;20194;-80
2022/12/07 10:13:21;;;;;;;3.43;2.37;;;;;;;-145.69;100.00;52737.50;5096707;28;20645;-80
2022/12/07 10:15:52;;;;;;;4.87;2.87;;;;;;;-145.69;100.00;52765.22;5095948;28;20283;-80
2022/12/07 10:18:38;;;;;;;5.97;2.80;;;;;;;-145.69;100.00;52755.31;5094768;28;20715;-80
2022/12/07 10:21:14;;;;;;;12.40;6.27;;;;;;;-145.69;100.00;52733.53;5095507;28;20206;-80
2022/12/07 10:23:42;;;;;;;11.20;5.97;;;;;;;-145.69;100.00;52721.66;5094605;28;20194;-80
2022/12/07 10:26:28;;;;;;;12.27;6.77;;;;;;;-145.69;100.00;52751.34;5094221;28;20260;-80
2022/12/07 10:28:56;;;;;;;9.73;5.43;;;;;;;-145.69;100.00;52715.72;5094936;28;20209;-80
2022/12/07 10:31:24;;;;;;;12.33;5.77;;;;;;;-145.69;100.00;52725.63;5094769;28;20198;-80
2022/12/07 10:33:54;;;;;;;10.60;5.87;;;;;;;-145.69;100.00;52749.38;5094106;28;20245;-79
2022/12/07 10:36:24;;;;;;;13.60;6.20;;;;;;;-145.69;100.00;52763.25;5094212;28;20704;-80
2022/12/07 10:38:54;;;;;;;9.63;4.87;;;;;;;-145.69;100.00;52737.50;5094736;28;20533;-80
2022/12/07 10:41:21;;;;;;;9.77;5.47;;;;;;;-145.69;100.00;52769.19;5093762;28;20198;-80
2022/12/07 10:43:52;;;;;;;9.10;5.00;;;;;;;-145.69;100.00;52733.53;5094348;28;20320;-79
2022/12/07 10:47:01;;;;;;;9.47;5.20;;;;;;;-145.69;100.00;52733.53;5094032;28;20194;-79
2022/12/07 10:50:01;;;;;;;11.93;6.23;;;;;;;-145.69;100.00;52727.59;5093996;28;20208;-78
2022/12/07 10:52:46;;;;;;;11.20;5.30;;;;;;;-145.69;100.00;52735.50;5094077;28;20232;-78
2022/12/07 10:55:21;;;;;;;12.03;5.83;;;;;;;-145.69;100.00;52733.53;5093795;28;20194;-78
2022/12/07 10:58:03;;;;;;;11.20;5.57;;;;;;;-145.69;100.00;52725.63;5093397;28;20636;-78
2022/12/07 11:00:36;;;;;;;9.87;5.30;;;;;;;-145.69;100.00;52769.19;5078374;28;20186;-78
2022/12/07 11:03:38;;;;;;;10.00;5.67;;;;;;;-145.69;100.00;52729.56;5094208;28;20293;-78
2022/12/07 11:06:15;;;;;;;12.60;5.33;;;;;;;-145.69;100.00;52729.56;5087505;28;20194;-78
2022/12/07 11:09:01;;;;;;;13.40;5.43;;;;;;;-145.69;100.00;52747.41;5073544;28;20198;-78
2022/12/07 11:11:35;;;;;;;10.43;5.47;;;;;;;-145.69;100.00;52717.69;5090148;28;20201;-79
2022/12/07 11:14:14;;;;;;;8.77;5.00;;;;;;;-145.69;100.00;52707.78;5073470;28;20206;-78